sensor_id;sensor_type;location;lat;lon;timestamp;P1;durP1;ratioP1;P2;durP2;ratioP2
11486;SDS011;10510;47.942;9.442;2023-07-13T00:00:35;18.02;;;6.85;;
11486;SDS011;10510;47.942;9.442;2023-07-13T00:02:36;22.95;;;7.10;;
11486;SDS011;10510;47.942;9.442;2023-07-13T00:04:36;12.55;;;5.85;;
11486;SDS011;10510;47.942;9.442;2023-07-13T00:06:36;18.00;;;6.32;;
11486;SDS011;10510;47.942;9.442;2023-07-13T00:08:37;12.07;;;7.05;;
11486;SDS011;10510;47.942;9.442;2023-07-13T00:10:40;13.52;;;7.50;;
11486;SDS011;10510;47.942;9.442;2023-07-13T00:12:42;16.40;;;7.00;;
11486;SDS011;10510;47.942;9.442;2023-07-13T00:14:42;19.23;;;7.13;;
11486;SDS011;10510;47.942;9.442;2023-07-13T00:16:42;13.43;;;6.88;;
11486;SDS011;10510;47.942;9.442;2023-07-13T00:18:43;13.63;;;7.20;;
11486;SDS011;10510;47.942;9.442;2023-07-13T00:20:44;14.63;;;7.25;;
11486;SDS011;10510;47.942;9.442;2023-07-13T00:22:44;19.60;;;7.60;;
11486;SDS011;10510;47.942;9.442;2023-07-13T00:24:44;19.17;;;7.43;;
11486;SDS011;10510;47.942;9.442;2023-07-13T00:26:45;13.75;;;7.35;;
11486;SDS011;10510;47.942;9.442;2023-07-13T00:28:45;17.70;;;7.10;;
11486;SDS011;10510;47.942;9.442;2023-07-13T00:30:46;18.48;;;7.13;;
11486;SDS011;10510;47.942;9.442;2023-07-13T00:32:46;23.50;;;7.50;;
11486;SDS011;10510;47.942;9.442;2023-07-13T00:34:47;18.13;;;7.50;;
11486;SDS011;10510;47.942;9.442;2023-07-13T00:36:47;19.67;;;7.50;;
11486;SDS011;10510;47.942;9.442;2023-07-13T00:38:47;20.55;;;7.93;;
11486;SDS011;10510;47.942;9.442;2023-07-13T00:40:48;16.77;;;7.65;;
11486;SDS011;10510;47.942;9.442;2023-07-13T00:42:48;21.38;;;7.70;;
11486;SDS011;10510;47.942;9.442;2023-07-13T00:47:07;13.82;;;6.75;;
11486;SDS011;10510;47.942;9.442;2023-07-13T00:49:10;19.65;;;7.60;;
11486;SDS011;10510;47.942;9.442;2023-07-13T00:51:13;14.63;;;6.72;;
11486;SDS011;10510;47.942;9.442;2023-07-13T00:53:17;20.55;;;7.93;;
11486;SDS011;10510;47.942;9.442;2023-07-13T00:55:19;21.55;;;7.72;;
11486;SDS011;10510;47.942;9.442;2023-07-13T00:57:21;13.95;;;7.22;;
11486;SDS011;10510;47.942;9.442;2023-07-13T00:59:21;15.65;;;7.38;;
11486;SDS011;10510;47.942;9.442;2023-07-13T01:01:22;17.92;;;7.45;;
11486;SDS011;10510;47.942;9.442;2023-07-13T01:03:23;15.50;;;8.30;;
11486;SDS011;10510;47.942;9.442;2023-07-13T01:05:23;18.35;;;7.72;;
11486;SDS011;10510;47.942;9.442;2023-07-13T01:07:25;15.23;;;7.95;;
11486;SDS011;10510;47.942;9.442;2023-07-13T01:09:26;14.82;;;7.45;;
11486;SDS011;10510;47.942;9.442;2023-07-13T01:11:27;20.08;;;8.02;;
11486;SDS011;10510;47.942;9.442;2023-07-13T01:13:27;19.60;;;7.45;;
11486;SDS011;10510;47.942;9.442;2023-07-13T01:15:38;15.05;;;7.45;;
11486;SDS011;10510;47.942;9.442;2023-07-13T01:17:46;16.55;;;7.20;;
11486;SDS011;10510;47.942;9.442;2023-07-13T01:19:46;24.88;;;10.13;;
11486;SDS011;10510;47.942;9.442;2023-07-13T01:21:49;15.82;;;8.73;;
11486;SDS011;10510;47.942;9.442;2023-07-13T01:23:51;12.95;;;8.25;;
11486;SDS011;10510;47.942;9.442;2023-07-13T01:25:52;16.15;;;8.13;;
11486;SDS011;10510;47.942;9.442;2023-07-13T01:27:55;16.20;;;8.52;;
11486;SDS011;10510;47.942;9.442;2023-07-13T01:29:55;14.55;;;8.00;;
11486;SDS011;10510;47.942;9.442;2023-07-13T01:32:01;12.60;;;8.13;;
11486;SDS011;10510;47.942;9.442;2023-07-13T01:34:02;17.55;;;8.55;;
11486;SDS011;10510;47.942;9.442;2023-07-13T01:36:03;17.95;;;8.15;;
11486;SDS011;10510;47.942;9.442;2023-07-13T01:38:04;19.10;;;8.82;;
11486;SDS011;10510;47.942;9.442;2023-07-13T01:40:04;14.20;;;8.88;;
11486;SDS011;10510;47.942;9.442;2023-07-13T01:42:05;16.67;;;8.10;;
11486;SDS011;10510;47.942;9.442;2023-07-13T01:44:06;21.45;;;8.27;;
11486;SDS011;10510;47.942;9.442;2023-07-13T01:46:06;16.13;;;8.70;;
11486;SDS011;10510;47.942;9.442;2023-07-13T01:48:07;23.30;;;8.05;;
11486;SDS011;10510;47.942;9.442;2023-07-13T01:50:07;20.42;;;9.77;;
11486;SDS011;10510;47.942;9.442;2023-07-13T01:52:08;26.30;;;9.45;;
11486;SDS011;10510;47.942;9.442;2023-07-13T01:54:08;21.92;;;8.75;;
11486;SDS011;10510;47.942;9.442;2023-07-13T01:56:08;22.30;;;8.23;;
11486;SDS011;10510;47.942;9.442;2023-07-13T01:58:08;19.77;;;8.40;;
11486;SDS011;10510;47.942;9.442;2023-07-13T02:00:09;22.48;;;8.18;;
11486;SDS011;10510;47.942;9.442;2023-07-13T02:02:10;17.52;;;7.85;;
11486;SDS011;10510;47.942;9.442;2023-07-13T02:04:10;16.17;;;8.45;;
11486;SDS011;10510;47.942;9.442;2023-07-13T02:06:11;23.60;;;9.48;;
11486;SDS011;10510;47.942;9.442;2023-07-13T02:08:11;15.40;;;8.43;;
11486;SDS011;10510;47.942;9.442;2023-07-13T02:10:11;21.95;;;9.23;;
11486;SDS011;10510;47.942;9.442;2023-07-13T02:12:12;19.50;;;8.45;;
11486;SDS011;10510;47.942;9.442;2023-07-13T02:14:12;18.40;;;8.75;;
11486;SDS011;10510;47.942;9.442;2023-07-13T02:16:12;15.48;;;8.77;;
11486;SDS011;10510;47.942;9.442;2023-07-13T02:18:12;25.77;;;9.07;;
11486;SDS011;10510;47.942;9.442;2023-07-13T02:20:16;23.33;;;8.65;;
11486;SDS011;10510;47.942;9.442;2023-07-13T02:22:17;19.48;;;8.13;;
11486;SDS011;10510;47.942;9.442;2023-07-13T02:24:17;17.67;;;8.85;;
11486;SDS011;10510;47.942;9.442;2023-07-13T02:26:19;24.17;;;8.60;;
11486;SDS011;10510;47.942;9.442;2023-07-13T02:28:20;19.10;;;8.65;;
11486;SDS011;10510;47.942;9.442;2023-07-13T02:30:20;18.95;;;8.00;;
11486;SDS011;10510;47.942;9.442;2023-07-13T02:32:20;18.40;;;8.68;;
11486;SDS011;10510;47.942;9.442;2023-07-13T02:34:21;19.88;;;9.57;;
11486;SDS011;10510;47.942;9.442;2023-07-13T02:36:21;17.98;;;7.65;;
11486;SDS011;10510;47.942;9.442;2023-07-13T02:38:21;20.80;;;8.18;;
11486;SDS011;10510;47.942;9.442;2023-07-13T02:40:22;32.00;;;9.18;;
11486;SDS011;10510;47.942;9.442;2023-07-13T02:42:22;20.75;;;8.60;;
11486;SDS011;10510;47.942;9.442;2023-07-13T02:44:22;18.80;;;8.27;;
11486;SDS011;10510;47.942;9.442;2023-07-13T02:46:23;22.45;;;8.32;;
11486;SDS011;10510;47.942;9.442;2023-07-13T02:48:24;23.45;;;8.50;;
11486;SDS011;10510;47.942;9.442;2023-07-13T02:50:24;17.30;;;8.00;;
11486;SDS011;10510;47.942;9.442;2023-07-13T02:52:25;20.08;;;8.25;;
11486;SDS011;10510;47.942;9.442;2023-07-13T02:54:25;17.15;;;8.98;;
11486;SDS011;10510;47.942;9.442;2023-07-13T02:56:26;19.02;;;8.35;;
11486;SDS011;10510;47.942;9.442;2023-07-13T02:58:28;18.38;;;9.27;;
11486;SDS011;10510;47.942;9.442;2023-07-13T03:00:28;18.73;;;8.55;;
11486;SDS011;10510;47.942;9.442;2023-07-13T03:02:29;19.27;;;8.38;;
11486;SDS011;10510;47.942;9.442;2023-07-13T03:04:30;25.55;;;9.35;;
11486;SDS011;10510;47.942;9.442;2023-07-13T03:06:31;29.52;;;9.18;;
11486;SDS011;10510;47.942;9.442;2023-07-13T03:08:33;24.02;;;8.40;;
11486;SDS011;10510;47.942;9.442;2023-07-13T03:10:34;15.80;;;8.25;;
11486;SDS011;10510;47.942;9.442;2023-07-13T03:12:34;28.80;;;8.80;;
11486;SDS011;10510;47.942;9.442;2023-07-13T03:14:34;16.70;;;8.48;;
11486;SDS011;10510;47.942;9.442;2023-07-13T03:16:35;20.52;;;8.95;;
11486;SDS011;10510;47.942;9.442;2023-07-13T03:18:35;26.02;;;10.45;;
11486;SDS011;10510;47.942;9.442;2023-07-13T03:20:36;18.55;;;8.98;;
11486;SDS011;10510;47.942;9.442;2023-07-13T03:22:37;16.58;;;8.23;;
11486;SDS011;10510;47.942;9.442;2023-07-13T03:24:37;14.60;;;8.30;;
11486;SDS011;10510;47.942;9.442;2023-07-13T03:26:37;21.48;;;8.85;;
11486;SDS011;10510;47.942;9.442;2023-07-13T03:28:38;17.83;;;8.10;;
11486;SDS011;10510;47.942;9.442;2023-07-13T03:30:39;20.73;;;8.23;;
11486;SDS011;10510;47.942;9.442;2023-07-13T03:32:39;24.80;;;8.30;;
11486;SDS011;10510;47.942;9.442;2023-07-13T03:34:40;17.20;;;7.55;;
11486;SDS011;10510;47.942;9.442;2023-07-13T03:36:40;13.98;;;6.28;;
11486;SDS011;10510;47.942;9.442;2023-07-13T03:38:40;14.27;;;6.05;;
11486;SDS011;10510;47.942;9.442;2023-07-13T03:40:41;11.43;;;6.03;;
11486;SDS011;10510;47.942;9.442;2023-07-13T03:42:41;13.07;;;6.57;;
11486;SDS011;10510;47.942;9.442;2023-07-13T03:44:41;14.25;;;5.88;;
11486;SDS011;10510;47.942;9.442;2023-07-13T03:46:45;17.83;;;6.20;;
11486;SDS011;10510;47.942;9.442;2023-07-13T03:48:46;17.67;;;5.63;;
11486;SDS011;10510;47.942;9.442;2023-07-13T03:50:47;10.63;;;4.68;;
11486;SDS011;10510;47.942;9.442;2023-07-13T03:52:49;14.32;;;4.88;;
11486;SDS011;10510;47.942;9.442;2023-07-13T03:54:49;8.40;;;4.45;;
11486;SDS011;10510;47.942;9.442;2023-07-13T03:56:49;13.00;;;3.95;;
11486;SDS011;10510;47.942;9.442;2023-07-13T03:58:50;8.07;;;3.95;;
11486;SDS011;10510;47.942;9.442;2023-07-13T04:00:50;6.78;;;3.65;;
11486;SDS011;10510;47.942;9.442;2023-07-13T04:02:51;9.55;;;4.43;;
11486;SDS011;10510;47.942;9.442;2023-07-13T04:04:51;7.05;;;3.50;;
11486;SDS011;10510;47.942;9.442;2023-07-13T04:06:53;6.18;;;3.33;;
11486;SDS011;10510;47.942;9.442;2023-07-13T04:08:55;6.28;;;3.63;;
11486;SDS011;10510;47.942;9.442;2023-07-13T04:10:57;10.52;;;3.65;;
11486;SDS011;10510;47.942;9.442;2023-07-13T04:12:58;6.32;;;3.42;;
11486;SDS011;10510;47.942;9.442;2023-07-13T04:14:59;8.65;;;3.83;;
11486;SDS011;10510;47.942;9.442;2023-07-13T04:16:59;8.73;;;3.97;;
11486;SDS011;10510;47.942;9.442;2023-07-13T04:18:59;9.68;;;4.15;;
11486;SDS011;10510;47.942;9.442;2023-07-13T04:21:00;10.63;;;4.07;;
11486;SDS011;10510;47.942;9.442;2023-07-13T04:23:00;7.20;;;3.88;;
11486;SDS011;10510;47.942;9.442;2023-07-13T04:25:00;9.52;;;3.78;;
11486;SDS011;10510;47.942;9.442;2023-07-13T04:27:01;7.78;;;3.20;;
11486;SDS011;10510;47.942;9.442;2023-07-13T04:29:02;5.57;;;3.70;;
11486;SDS011;10510;47.942;9.442;2023-07-13T04:31:04;7.40;;;2.80;;
11486;SDS011;10510;47.942;9.442;2023-07-13T04:33:04;14.10;;;3.10;;
11486;SDS011;10510;47.942;9.442;2023-07-13T04:35:05;6.53;;;2.92;;
11486;SDS011;10510;47.942;9.442;2023-07-13T04:37:05;4.85;;;2.90;;
11486;SDS011;10510;47.942;9.442;2023-07-13T04:39:06;8.07;;;2.80;;
11486;SDS011;10510;47.942;9.442;2023-07-13T04:41:07;6.38;;;3.10;;
11486;SDS011;10510;47.942;9.442;2023-07-13T04:43:08;8.98;;;2.80;;
11486;SDS011;10510;47.942;9.442;2023-07-13T04:45:09;15.98;;;3.47;;
11486;SDS011;10510;47.942;9.442;2023-07-13T04:47:09;4.38;;;2.60;;
11486;SDS011;10510;47.942;9.442;2023-07-13T04:49:09;11.30;;;4.50;;
11486;SDS011;10510;47.942;9.442;2023-07-13T04:51:10;5.03;;;3.08;;
11486;SDS011;10510;47.942;9.442;2023-07-13T04:53:11;7.10;;;3.00;;
11486;SDS011;10510;47.942;9.442;2023-07-13T04:55:11;4.22;;;2.40;;
11486;SDS011;10510;47.942;9.442;2023-07-13T04:57:11;6.50;;;3.30;;
11486;SDS011;10510;47.942;9.442;2023-07-13T04:59:12;8.85;;;3.05;;
11486;SDS011;10510;47.942;9.442;2023-07-13T05:01:12;5.15;;;2.53;;
11486;SDS011;10510;47.942;9.442;2023-07-13T05:03:13;4.47;;;2.72;;
11486;SDS011;10510;47.942;9.442;2023-07-13T05:05:13;5.28;;;2.20;;
11486;SDS011;10510;47.942;9.442;2023-07-13T05:07:14;12.20;;;3.10;;
11486;SDS011;10510;47.942;9.442;2023-07-13T05:09:14;5.85;;;3.30;;
11486;SDS011;10510;47.942;9.442;2023-07-13T05:11:15;9.25;;;3.83;;
11486;SDS011;10510;47.942;9.442;2023-07-13T05:13:15;7.57;;;3.63;;
11486;SDS011;10510;47.942;9.442;2023-07-13T05:15:15;11.02;;;5.38;;
11486;SDS011;10510;47.942;9.442;2023-07-13T05:17:16;5.03;;;3.30;;
11486;SDS011;10510;47.942;9.442;2023-07-13T05:19:16;6.82;;;2.92;;
11486;SDS011;10510;47.942;9.442;2023-07-13T05:21:16;9.77;;;2.80;;
11486;SDS011;10510;47.942;9.442;2023-07-13T05:23:17;10.93;;;3.25;;
11486;SDS011;10510;47.942;9.442;2023-07-13T05:25:17;9.27;;;2.65;;
11486;SDS011;10510;47.942;9.442;2023-07-13T05:27:17;6.10;;;3.00;;
11486;SDS011;10510;47.942;9.442;2023-07-13T05:29:17;5.78;;;3.05;;
11486;SDS011;10510;47.942;9.442;2023-07-13T05:31:19;5.97;;;2.72;;
11486;SDS011;10510;47.942;9.442;2023-07-13T05:33:19;4.30;;;2.67;;
11486;SDS011;10510;47.942;9.442;2023-07-13T05:35:20;4.38;;;2.58;;
11486;SDS011;10510;47.942;9.442;2023-07-13T05:37:20;8.27;;;2.92;;
11486;SDS011;10510;47.942;9.442;2023-07-13T05:39:20;9.60;;;2.35;;
11486;SDS011;10510;47.942;9.442;2023-07-13T05:41:21;5.72;;;3.05;;
11486;SDS011;10510;47.942;9.442;2023-07-13T05:43:21;6.22;;;2.22;;
11486;SDS011;10510;47.942;9.442;2023-07-13T05:45:22;6.40;;;2.05;;
11486;SDS011;10510;47.942;9.442;2023-07-13T05:47:22;9.55;;;3.63;;
11486;SDS011;10510;47.942;9.442;2023-07-13T05:49:22;7.53;;;3.00;;
11486;SDS011;10510;47.942;9.442;2023-07-13T05:51:23;7.88;;;2.97;;
11486;SDS011;10510;47.942;9.442;2023-07-13T05:53:23;4.32;;;2.38;;
11486;SDS011;10510;47.942;9.442;2023-07-13T05:55:23;7.13;;;3.20;;
11486;SDS011;10510;47.942;9.442;2023-07-13T05:57:24;7.95;;;2.22;;
11486;SDS011;10510;47.942;9.442;2023-07-13T05:59:24;13.88;;;2.70;;
11486;SDS011;10510;47.942;9.442;2023-07-13T06:01:25;6.22;;;2.42;;
11486;SDS011;10510;47.942;9.442;2023-07-13T06:03:25;8.38;;;2.75;;
11486;SDS011;10510;47.942;9.442;2023-07-13T06:05:25;6.93;;;2.42;;
11486;SDS011;10510;47.942;9.442;2023-07-13T06:07:27;7.68;;;2.78;;
11486;SDS011;10510;47.942;9.442;2023-07-13T06:09:27;10.52;;;2.80;;
11486;SDS011;10510;47.942;9.442;2023-07-13T06:11:27;10.88;;;2.38;;
11486;SDS011;10510;47.942;9.442;2023-07-13T06:13:29;5.90;;;2.35;;
11486;SDS011;10510;47.942;9.442;2023-07-13T06:15:30;5.22;;;1.95;;
11486;SDS011;10510;47.942;9.442;2023-07-13T06:17:30;7.85;;;1.80;;
11486;SDS011;10510;47.942;9.442;2023-07-13T06:19:30;9.18;;;2.50;;
11486;SDS011;10510;47.942;9.442;2023-07-13T06:21:31;4.00;;;1.98;;
11486;SDS011;10510;47.942;9.442;2023-07-13T06:23:31;6.43;;;2.38;;
11486;SDS011;10510;47.942;9.442;2023-07-13T06:25:31;7.38;;;2.30;;
11486;SDS011;10510;47.942;9.442;2023-07-13T06:27:31;6.32;;;2.15;;
11486;SDS011;10510;47.942;9.442;2023-07-13T06:29:32;6.55;;;1.83;;
11486;SDS011;10510;47.942;9.442;2023-07-13T06:31:32;4.28;;;1.67;;
11486;SDS011;10510;47.942;9.442;2023-07-13T06:33:32;6.55;;;1.60;;
11486;SDS011;10510;47.942;9.442;2023-07-13T06:35:33;3.70;;;1.83;;
11486;SDS011;10510;47.942;9.442;2023-07-13T06:37:33;5.93;;;2.08;;
11486;SDS011;10510;47.942;9.442;2023-07-13T06:39:34;6.97;;;1.80;;
11486;SDS011;10510;47.942;9.442;2023-07-13T06:41:34;5.75;;;1.58;;
11486;SDS011;10510;47.942;9.442;2023-07-13T06:43:34;5.90;;;2.03;;
11486;SDS011;10510;47.942;9.442;2023-07-13T06:45:39;12.15;;;2.00;;
11486;SDS011;10510;47.942;9.442;2023-07-13T06:47:41;5.95;;;1.88;;
11486;SDS011;10510;47.942;9.442;2023-07-13T06:49:41;3.90;;;2.20;;
11486;SDS011;10510;47.942;9.442;2023-07-13T06:51:41;6.47;;;2.55;;
11486;SDS011;10510;47.942;9.442;2023-07-13T06:53:42;7.20;;;1.80;;
11486;SDS011;10510;47.942;9.442;2023-07-13T06:55:43;11.85;;;1.92;;
11486;SDS011;10510;47.942;9.442;2023-07-13T06:57:45;5.55;;;1.50;;
11486;SDS011;10510;47.942;9.442;2023-07-13T06:59:45;3.90;;;1.50;;
11486;SDS011;10510;47.942;9.442;2023-07-13T07:01:45;4.03;;;1.92;;
11486;SDS011;10510;47.942;9.442;2023-07-13T07:03:46;3.38;;;1.60;;
11486;SDS011;10510;47.942;9.442;2023-07-13T07:05:47;7.57;;;1.70;;
11486;SDS011;10510;47.942;9.442;2023-07-13T07:07:48;5.45;;;1.55;;
11486;SDS011;10510;47.942;9.442;2023-07-13T07:09:49;5.05;;;1.80;;
11486;SDS011;10510;47.942;9.442;2023-07-13T07:11:49;2.70;;;1.80;;
11486;SDS011;10510;47.942;9.442;2023-07-13T07:13:53;3.40;;;1.85;;
11486;SDS011;10510;47.942;9.442;2023-07-13T07:15:53;2.97;;;1.70;;
11486;SDS011;10510;47.942;9.442;2023-07-13T07:17:54;7.13;;;1.90;;
11486;SDS011;10510;47.942;9.442;2023-07-13T07:19:54;3.78;;;1.95;;
11486;SDS011;10510;47.942;9.442;2023-07-13T07:21:54;5.10;;;2.20;;
11486;SDS011;10510;47.942;9.442;2023-07-13T07:23:55;2.35;;;1.73;;
11486;SDS011;10510;47.942;9.442;2023-07-13T07:25:55;7.50;;;2.05;;
11486;SDS011;10510;47.942;9.442;2023-07-13T07:27:55;5.97;;;1.50;;
11486;SDS011;10510;47.942;9.442;2023-07-13T07:29:56;4.88;;;1.40;;
11486;SDS011;10510;47.942;9.442;2023-07-13T07:31:58;3.58;;;1.48;;
11486;SDS011;10510;47.942;9.442;2023-07-13T07:33:59;4.53;;;1.40;;
11486;SDS011;10510;47.942;9.442;2023-07-13T07:36:00;7.18;;;1.65;;
11486;SDS011;10510;47.942;9.442;2023-07-13T07:38:00;3.30;;;2.10;;
11486;SDS011;10510;47.942;9.442;2023-07-13T07:40:01;6.75;;;2.47;;
11486;SDS011;10510;47.942;9.442;2023-07-13T07:42:01;6.80;;;1.70;;
11486;SDS011;10510;47.942;9.442;2023-07-13T07:44:01;5.38;;;1.27;;
11486;SDS011;10510;47.942;9.442;2023-07-13T07:46:02;7.55;;;1.90;;
11486;SDS011;10510;47.942;9.442;2023-07-13T07:48:03;2.10;;;1.45;;
11486;SDS011;10510;47.942;9.442;2023-07-13T07:50:04;4.68;;;1.50;;
11486;SDS011;10510;47.942;9.442;2023-07-13T07:52:05;3.85;;;1.45;;
11486;SDS011;10510;47.942;9.442;2023-07-13T07:54:06;6.47;;;1.63;;
11486;SDS011;10510;47.942;9.442;2023-07-13T07:56:06;4.60;;;1.55;;
11486;SDS011;10510;47.942;9.442;2023-07-13T07:58:07;4.07;;;1.40;;
11486;SDS011;10510;47.942;9.442;2023-07-13T08:00:07;9.70;;;2.17;;
11486;SDS011;10510;47.942;9.442;2023-07-13T08:02:08;6.43;;;1.67;;
11486;SDS011;10510;47.942;9.442;2023-07-13T08:04:10;6.28;;;1.75;;
11486;SDS011;10510;47.942;9.442;2023-07-13T08:06:10;8.38;;;2.45;;
11486;SDS011;10510;47.942;9.442;2023-07-13T08:08:10;4.95;;;1.45;;
11486;SDS011;10510;47.942;9.442;2023-07-13T08:10:11;3.05;;;1.27;;
11486;SDS011;10510;47.942;9.442;2023-07-13T08:12:11;3.78;;;1.40;;
11486;SDS011;10510;47.942;9.442;2023-07-13T08:14:11;5.70;;;1.45;;
11486;SDS011;10510;47.942;9.442;2023-07-13T08:16:11;4.32;;;1.80;;
11486;SDS011;10510;47.942;9.442;2023-07-13T08:18:12;7.38;;;1.88;;
11486;SDS011;10510;47.942;9.442;2023-07-13T08:20:12;6.05;;;1.73;;
11486;SDS011;10510;47.942;9.442;2023-07-13T08:22:12;5.93;;;2.08;;
11486;SDS011;10510;47.942;9.442;2023-07-13T08:24:13;4.93;;;1.70;;
11486;SDS011;10510;47.942;9.442;2023-07-13T08:26:13;3.72;;;1.55;;
11486;SDS011;10510;47.942;9.442;2023-07-13T08:28:14;9.18;;;1.30;;
11486;SDS011;10510;47.942;9.442;2023-07-13T08:30:14;4.78;;;1.60;;
11486;SDS011;10510;47.942;9.442;2023-07-13T08:32:15;9.98;;;2.03;;
11486;SDS011;10510;47.942;9.442;2023-07-13T08:34:15;6.45;;;1.88;;
11486;SDS011;10510;47.942;9.442;2023-07-13T08:36:15;6.50;;;1.48;;
11486;SDS011;10510;47.942;9.442;2023-07-13T08:38:16;5.43;;;1.42;;
11486;SDS011;10510;47.942;9.442;2023-07-13T08:40:17;7.75;;;1.77;;
11486;SDS011;10510;47.942;9.442;2023-07-13T08:46:42;4.93;;;2.38;;
11486;SDS011;10510;47.942;9.442;2023-07-13T08:48:49;3.70;;;1.75;;
11486;SDS011;10510;47.942;9.442;2023-07-13T08:50:58;3.83;;;1.42;;
11486;SDS011;10510;47.942;9.442;2023-07-13T08:53:04;3.10;;;1.58;;
11486;SDS011;10510;47.942;9.442;2023-07-13T08:55:16;9.15;;;1.58;;
11486;SDS011;10510;47.942;9.442;2023-07-13T08:57:21;7.05;;;1.70;;
11486;SDS011;10510;47.942;9.442;2023-07-13T08:59:30;2.80;;;1.23;;
11486;SDS011;10510;47.942;9.442;2023-07-13T09:01:53;3.72;;;1.33;;
11486;SDS011;10510;47.942;9.442;2023-07-13T09:06:08;4.95;;;1.77;;
11486;SDS011;10510;47.942;9.442;2023-07-13T09:10:40;3.28;;;1.40;;
11486;SDS011;10510;47.942;9.442;2023-07-13T09:15:23;6.47;;;1.80;;
11486;SDS011;10510;47.942;9.442;2023-07-13T09:17:39;3.20;;;1.60;;
11486;SDS011;10510;47.942;9.442;2023-07-13T09:19:46;8.00;;;2.05;;
11486;SDS011;10510;47.942;9.442;2023-07-13T09:21:53;5.87;;;2.30;;
11486;SDS011;10510;47.942;9.442;2023-07-13T09:23:56;11.93;;;1.90;;
11486;SDS011;10510;47.942;9.442;2023-07-13T09:26:14;7.53;;;1.90;;
11486;SDS011;10510;47.942;9.442;2023-07-13T09:28:20;4.10;;;1.67;;
11486;SDS011;10510;47.942;9.442;2023-07-13T09:33:13;5.03;;;1.65;;
11486;SDS011;10510;47.942;9.442;2023-07-13T09:35:16;5.85;;;1.83;;
11486;SDS011;10510;47.942;9.442;2023-07-13T09:37:19;4.57;;;1.80;;
11486;SDS011;10510;47.942;9.442;2023-07-13T09:39:55;4.57;;;1.70;;
11486;SDS011;10510;47.942;9.442;2023-07-13T09:41:54;4.32;;;2.17;;
11486;SDS011;10510;47.942;9.442;2023-07-13T09:44:10;4.75;;;1.92;;
11486;SDS011;10510;47.942;9.442;2023-07-13T09:46:20;5.03;;;1.90;;
11486;SDS011;10510;47.942;9.442;2023-07-13T09:48:22;6.43;;;2.03;;
11486;SDS011;10510;47.942;9.442;2023-07-13T09:50:24;4.78;;;2.38;;
11486;SDS011;10510;47.942;9.442;2023-07-13T09:52:25;5.95;;;2.50;;
11486;SDS011;10510;47.942;9.442;2023-07-13T09:54:27;3.65;;;2.47;;
11486;SDS011;10510;47.942;9.442;2023-07-13T09:56:28;7.20;;;2.35;;
11486;SDS011;10510;47.942;9.442;2023-07-13T09:58:33;3.88;;;2.28;;
11486;SDS011;10510;47.942;9.442;2023-07-13T10:00:35;5.28;;;2.00;;
11486;SDS011;10510;47.942;9.442;2023-07-13T10:02:36;6.78;;;2.05;;
11486;SDS011;10510;47.942;9.442;2023-07-13T10:04:36;4.32;;;2.20;;
11486;SDS011;10510;47.942;9.442;2023-07-13T10:06:36;3.38;;;2.17;;
11486;SDS011;10510;47.942;9.442;2023-07-13T10:08:39;6.85;;;2.60;;
11486;SDS011;10510;47.942;9.442;2023-07-13T10:10:39;4.22;;;2.10;;
11486;SDS011;10510;47.942;9.442;2023-07-13T10:12:40;10.75;;;2.10;;
11486;SDS011;10510;47.942;9.442;2023-07-13T10:14:41;4.20;;;2.47;;
11486;SDS011;10510;47.942;9.442;2023-07-13T10:16:43;3.92;;;2.00;;
11486;SDS011;10510;47.942;9.442;2023-07-13T10:18:48;8.77;;;2.20;;
11486;SDS011;10510;47.942;9.442;2023-07-13T10:20:53;5.93;;;1.85;;
11486;SDS011;10510;47.942;9.442;2023-07-13T10:23:04;7.35;;;1.67;;
11486;SDS011;10510;47.942;9.442;2023-07-13T10:25:13;4.80;;;1.70;;
11486;SDS011;10510;47.942;9.442;2023-07-13T10:27:19;4.30;;;2.08;;
11486;SDS011;10510;47.942;9.442;2023-07-13T10:29:45;8.00;;;1.58;;
11486;SDS011;10510;47.942;9.442;2023-07-13T10:31:51;6.80;;;2.47;;
11486;SDS011;10510;47.942;9.442;2023-07-13T10:33:51;5.15;;;2.55;;
11486;SDS011;10510;47.942;9.442;2023-07-13T10:36:03;3.92;;;1.77;;
11486;SDS011;10510;47.942;9.442;2023-07-13T10:38:26;6.78;;;2.05;;
11486;SDS011;10510;47.942;9.442;2023-07-13T10:40:37;7.60;;;1.88;;
11486;SDS011;10510;47.942;9.442;2023-07-13T10:42:43;5.10;;;1.88;;
11486;SDS011;10510;47.942;9.442;2023-07-13T10:44:47;4.00;;;1.80;;
11486;SDS011;10510;47.942;9.442;2023-07-13T10:46:47;5.28;;;1.40;;
11486;SDS011;10510;47.942;9.442;2023-07-13T10:48:49;4.60;;;1.70;;
11486;SDS011;10510;47.942;9.442;2023-07-13T10:50:53;7.35;;;1.90;;
11486;SDS011;10510;47.942;9.442;2023-07-13T10:53:01;6.03;;;1.85;;
11486;SDS011;10510;47.942;9.442;2023-07-13T10:55:03;4.47;;;1.67;;
11486;SDS011;10510;47.942;9.442;2023-07-13T10:59:25;3.03;;;1.13;;
11486;SDS011;10510;47.942;9.442;2023-07-13T11:01:27;3.83;;;1.35;;
11486;SDS011;10510;47.942;9.442;2023-07-13T11:05:43;4.72;;;1.27;;
11486;SDS011;10510;47.942;9.442;2023-07-13T11:07:54;3.67;;;1.10;;
11486;SDS011;10510;47.942;9.442;2023-07-13T11:10:05;5.55;;;1.67;;
11486;SDS011;10510;47.942;9.442;2023-07-13T11:12:27;8.02;;;1.48;;
11486;SDS011;10510;47.942;9.442;2023-07-13T11:16:54;5.45;;;1.42;;
11486;SDS011;10510;47.942;9.442;2023-07-13T11:23:33;4.05;;;1.23;;
11486;SDS011;10510;47.942;9.442;2023-07-13T11:25:42;5.30;;;1.20;;
11486;SDS011;10510;47.942;9.442;2023-07-13T11:27:50;3.50;;;1.38;;
11486;SDS011;10510;47.942;9.442;2023-07-13T11:29:52;6.50;;;1.50;;
11486;SDS011;10510;47.942;9.442;2023-07-13T11:32:25;3.45;;;1.25;;
11486;SDS011;10510;47.942;9.442;2023-07-13T11:34:35;3.42;;;1.15;;
11486;SDS011;10510;47.942;9.442;2023-07-13T11:36:38;2.35;;;0.98;;
11486;SDS011;10510;47.942;9.442;2023-07-13T11:38:47;2.20;;;0.90;;
11486;SDS011;10510;47.942;9.442;2023-07-13T11:40:56;2.83;;;1.20;;
11486;SDS011;10510;47.942;9.442;2023-07-13T11:43:01;4.35;;;1.77;;
11486;SDS011;10510;47.942;9.442;2023-07-13T11:45:14;4.85;;;1.40;;
11486;SDS011;10510;47.942;9.442;2023-07-13T11:47:20;4.07;;;1.05;;
11486;SDS011;10510;47.942;9.442;2023-07-13T11:49:23;6.32;;;1.52;;
11486;SDS011;10510;47.942;9.442;2023-07-13T11:51:28;4.32;;;1.30;;
11486;SDS011;10510;47.942;9.442;2023-07-13T11:53:36;5.95;;;1.05;;
11486;SDS011;10510;47.942;9.442;2023-07-13T11:55:40;3.55;;;1.50;;
11486;SDS011;10510;47.942;9.442;2023-07-13T11:57:42;2.47;;;0.90;;
11486;SDS011;10510;47.942;9.442;2023-07-13T11:59:46;3.60;;;0.93;;
11486;SDS011;10510;47.942;9.442;2023-07-13T12:01:49;2.70;;;1.30;;
11486;SDS011;10510;47.942;9.442;2023-07-13T12:03:52;2.90;;;1.17;;
11486;SDS011;10510;47.942;9.442;2023-07-13T12:07:59;2.42;;;1.00;;
11486;SDS011;10510;47.942;9.442;2023-07-13T12:12:12;3.53;;;1.10;;
11486;SDS011;10510;47.942;9.442;2023-07-13T12:14:14;9.82;;;4.15;;
11486;SDS011;10510;47.942;9.442;2023-07-13T12:16:17;3.60;;;1.38;;
11486;SDS011;10510;47.942;9.442;2023-07-13T12:18:22;4.75;;;1.20;;
11486;SDS011;10510;47.942;9.442;2023-07-13T12:20:33;4.60;;;1.27;;
11486;SDS011;10510;47.942;9.442;2023-07-13T12:22:37;3.38;;;1.00;;
11486;SDS011;10510;47.942;9.442;2023-07-13T12:24:37;3.25;;;1.00;;
11486;SDS011;10510;47.942;9.442;2023-07-13T12:26:39;3.63;;;1.40;;
11486;SDS011;10510;47.942;9.442;2023-07-13T12:28:45;5.40;;;1.50;;
11486;SDS011;10510;47.942;9.442;2023-07-13T12:30:47;4.47;;;1.27;;
11486;SDS011;10510;47.942;9.442;2023-07-13T12:32:58;3.30;;;1.30;;
11486;SDS011;10510;47.942;9.442;2023-07-13T12:35:13;4.28;;;1.10;;
11486;SDS011;10510;47.942;9.442;2023-07-13T12:37:15;5.35;;;1.48;;
11486;SDS011;10510;47.942;9.442;2023-07-13T12:39:22;4.13;;;1.35;;
11486;SDS011;10510;47.942;9.442;2023-07-13T12:41:23;5.07;;;1.35;;
11486;SDS011;10510;47.942;9.442;2023-07-13T12:43:23;4.80;;;1.48;;
11486;SDS011;10510;47.942;9.442;2023-07-13T12:45:26;2.88;;;1.40;;